• Join FlightAware (Why Join?)
  • Login
  • US Flag 
08:41AM EDT


 

Airport Tracker/Info


-or-


 

Live Flight TrackerFlight Track Log ✈ SKW6472 ✈ 17-May-2013 ✈ KLAX - KABQ

Flight Track Log - Related Links

Times and Time Zones

All times are in EDT time to prevent confusion due to time zone crossing. See the SKW6472 flight status page for this flight to view local times or setup timezone preferences in your user account.

Time Position Orientation Groundspeed Altitude Reporting Facility
EDT Latitude Longitude Course Direction KTS MPH feet Rate Location/Type
11:15AM 33.9317 -118.4458 90° East 181 208 1,700  Level Los Angeles Center
11:16AM 33.8828 -118.5100 227° Southwest 258 297 3,600 1,980 Climbing Los Angeles Center
11:17AM 33.7516 -118.6022 132° Southeast  Level FlightAware Approximate
11:17AM 33.8156 -118.5183 186° South 273 314 5,900  Level Los Angeles Center
11:18AM 33.6770 -118.4785 101° East  Level FlightAware Approximate
11:18AM 33.7222 -118.5181 180° South 284 327 9,800  Level Los Angeles Center
11:19AM 33.6333 -118.3315 90° East  Level FlightAware Approximate
11:19AM 33.6708 -118.4311 125° Southeast 328 377 11,900  Level Los Angeles Center
11:20AM 33.6333 -118.1741 90° East  Level FlightAware Approximate
11:20AM 33.6450 -118.3233 106° East 357 411 13,900  Level Los Angeles Center
11:21AM 33.6444 -118.1989 90° East 385 443 15,800 1,980 Climbing Los Angeles Center
11:22AM 33.6439 -118.0394 90° East 402 463 18,100 1,980 Climbing Los Angeles Center
11:23AM 33.6431 -117.9003 90° East 417 480 20,000 1,800 Climbing Los Angeles Center
11:24AM 33.6428 -117.7589 90° East 424 488 21,900 1,560 Climbing Los Angeles Center
11:25AM 33.6422 -117.6128 90° East 434 499 23,300 1,200 Climbing Los Angeles Center
11:26AM 33.6411 -117.4617 90° East 448 516 24,400 1,080 Climbing Los Angeles Center
11:27AM 33.6403 -117.2719 90° East 470 541 25,800 1,440 Climbing Los Angeles Center
11:28AM 33.6669 -117.0828 80° East 481 554 27,700 1,560 Climbing Los Angeles Center
11:29AM 33.6958 -116.9300 77° East 480 552 29,100 1,260 Climbing Los Angeles Center
11:31AM 33.7331 -116.7400 77° East 479 551 30,600 780 Climbing Los Angeles Center
11:32AM 33.7608 -116.5817 78° East 483 556 31,000 180 Climbing Los Angeles Center
11:33AM 33.7931 -116.4147 77° East 507 583 31,000  Level Los Angeles Center
11:34AM 33.8294 -116.2086 78° East 522 601 31,000 -60 Level Los Angeles Center
11:35AM 33.8608 -116.0383 77° East 521 600 30,900  Descending Los Angeles Center
11:36AM 33.8908 -115.8689 78° East 518 596 31,000  Climbing Los Angeles Center
11:37AM 33.9214 -115.6983 78° East 521 600 31,000  Level Los Angeles Center
11:38AM 33.9514 -115.5314 78° East 513 590 31,000  Level Los Angeles Center
11:39AM 33.9814 -115.3633 78° East 511 588 31,000 -60 Level Los Angeles Center
11:40AM 34.0172 -115.1631 78° East 512 589 30,900  Descending Los Angeles Center
11:41AM 34.0458 -114.9958 78° East 510 587 31,000  Climbing Los Angeles Center
11:42AM 34.0767 -114.8261 78° East 517 595 31,000  Level Los Angeles Center
11:43AM 34.1036 -114.6522 79° East 524 603 31,000 -60 Level Los Angeles Center
11:44AM 34.1164 -114.4786 85° East 521 600 30,900  Descending Los Angeles Center
11:45AM 34.1256 -114.3697 84° East 522 601 31,000 60 Climbing Albuquerque Center
11:46AM 34.1406 -114.1939 84° East 522 601 31,000  Level Albuquerque Center
11:47AM 34.1544 -114.0247 84° East 514 592 31,000  Level Albuquerque Center
11:48AM 34.1664 -113.8567 85° East 507 583 31,000  Level Albuquerque Center
11:49AM 34.1792 -113.6878 85° East 506 582 31,000  Level Albuquerque Center
11:50AM 34.1906 -113.5092 86° East 504 580 31,000  Level Albuquerque Center
11:51AM 34.1983 -113.3425 87° East 502 578 31,000  Level Albuquerque Center
11:52AM 34.2106 -113.1769 85° East 498 573 31,000  Level Albuquerque Center
11:53AM 34.2225 -113.0097 85° East 498 573 31,000  Level Albuquerque Center
11:54AM 34.2369 -112.8089 85° East 500 575 31,000  Level Albuquerque Center
11:55AM 34.2483 -112.6425 85° East 499 574 31,000  Level Albuquerque Center
11:56AM 34.2606 -112.4750 85° East 499 574 31,000  Level Albuquerque Center
11:57AM 34.2703 -112.3094 86° East 496 571 31,000  Level Albuquerque Center
11:58AM 34.2794 -112.1425 86° East 496 571 31,000  Level Albuquerque Center
11:59AM 34.2903 -111.9733 86° East 498 573 31,000  Level Albuquerque Center
12:00PM 34.3003 -111.8022 86° East 503 579 31,000  Level Albuquerque Center
12:01PM 34.3094 -111.6308 86° East 505 581 31,000  Level Albuquerque Center
12:02PM 34.3214 -111.4253 86° East 507 583 31,000  Level Albuquerque Center
12:03PM 34.3300 -111.2567 86° East 503 579 31,000  Level Albuquerque Center
12:04PM 34.3392 -111.0875 86° East 503 579 31,000  Level Albuquerque Center
12:05PM 34.3486 -110.9203 86° East 501 577 31,000  Level Albuquerque Center
12:06PM 34.3553 -110.7531 87° East 498 573 31,000  Level Albuquerque Center
12:07PM 34.3650 -110.5861 86° East 499 574 31,000  Level Albuquerque Center
12:08PM 34.3739 -110.3800 87° East 500 575 31,000  Level Albuquerque Center
12:09PM 34.3811 -110.2172 87° East 504 580 31,000  Level Albuquerque Center
12:10PM 34.3886 -110.0294 87° East 502 578 31,000  Level Albuquerque Center
12:11PM 34.3953 -109.8686 87° East 503 579 31,000  Level Albuquerque Center
12:12PM 34.4036 -109.6803 87° East 503 579 31,000  Level Albuquerque Center
12:14PM 34.4100 -109.5194 87° East 503 579 31,000  Level Albuquerque Center
12:15PM 34.4161 -109.3575 87° East 502 578 31,000  Level Albuquerque Center
12:16PM 34.4517 -109.1733 77° East 510 587 31,000  Level Albuquerque Center
12:17PM 34.4856 -109.0169 75° East 507 583 31,000  Level Albuquerque Center
12:18PM 34.5242 -108.8339 76° East 504 580 31,000  Level Albuquerque Center
12:19PM 34.5578 -108.6767 75° East 505 581 31,000  Level Albuquerque Center
12:20PM 34.5975 -108.4942 75° East 503 579 31,000  Level Albuquerque Center
12:21PM 34.6306 -108.3383 76° East 506 582 31,000  Level Albuquerque Center
12:22PM 34.6653 -108.1733 76° East 506 582 31,000 -1,380 Level Albuquerque Center
12:23PM 34.6986 -108.0119 76° East 499 574 28,300 -3,300 Descending Albuquerque Center
12:24PM 34.7372 -107.8244 76° East 483 556 24,300 -3,720 Descending Albuquerque Center
12:25PM 34.7689 -107.6692 76° East 475 547 20,700 -3,360 Descending Albuquerque Center
12:26PM 34.7992 -107.5217 76° East 458 527 17,400 -3,600 Descending Albuquerque Center
12:26PM 34.8094 -107.4639 78° East 445 512 16,000 -3,120 Descending Albuquerque Center
12:27PM 34.8272 -107.3786 76° East 444 511 14,200 -1,980 Descending Albuquerque Center
12:27PM 34.8372 -107.3256 77° East 422 486 14,000 -420 Descending Albuquerque Center
12:28PM 34.8611 -107.2558 67° East 390 449 13,800 -960 Descending Albuquerque Center
12:29PM 34.9044 -107.1536 63° Northeast 351 404 12,300 -1,620 Descending Albuquerque Center
12:30PM 34.9583 -107.0236 63° Northeast 324 373 10,400 -1,500 Descending Albuquerque Center
12:31PM 34.9911 -106.9425 64° Northeast 323 372 9,200 -1,020 Descending Albuquerque Center
12:32PM 35.0253 -106.8583 64° Northeast 303 349 8,400 -600 Descending Albuquerque Center
12:33PM 35.0439 -106.7878 72° East 258 297 8,000 -420 Descending Albuquerque Center